sensor_id;sensor_type;location;lat;lon;timestamp;P1;durP1;ratioP1;P2;durP2;ratioP2
34497;SDS011;20744;50.938;7.286;2022-09-17T00:00:21;11.32;;;2.80;;
34497;SDS011;20744;50.938;7.286;2022-09-17T00:02:49;10.20;;;2.28;;
34497;SDS011;20744;50.938;7.286;2022-09-17T00:05:19;13.65;;;2.67;;
34497;SDS011;20744;50.938;7.286;2022-09-17T00:07:46;12.15;;;2.25;;
34497;SDS011;20744;50.938;7.286;2022-09-17T00:10:14;14.13;;;2.45;;
34497;SDS011;20744;50.938;7.286;2022-09-17T00:12:41;22.77;;;2.85;;
34497;SDS011;20744;50.938;7.286;2022-09-17T00:15:08;9.93;;;2.80;;
34497;SDS011;20744;50.938;7.286;2022-09-17T00:17:37;14.77;;;3.42;;
34497;SDS011;20744;50.938;7.286;2022-09-17T00:20:05;11.00;;;3.22;;
34497;SDS011;20744;50.938;7.286;2022-09-17T00:22:33;13.30;;;3.03;;
34497;SDS011;20744;50.938;7.286;2022-09-17T00:25:00;16.73;;;4.25;;
34497;SDS011;20744;50.938;7.286;2022-09-17T00:27:28;11.40;;;3.30;;
34497;SDS011;20744;50.938;7.286;2022-09-17T00:29:55;17.02;;;4.07;;
34497;SDS011;20744;50.938;7.286;2022-09-17T00:32:22;13.30;;;4.00;;
34497;SDS011;20744;50.938;7.286;2022-09-17T00:34:51;14.50;;;4.28;;
34497;SDS011;20744;50.938;7.286;2022-09-17T00:37:19;16.60;;;4.30;;
34497;SDS011;20744;50.938;7.286;2022-09-17T00:39:46;11.50;;;4.07;;
34497;SDS011;20744;50.938;7.286;2022-09-17T00:42:13;16.70;;;4.15;;
34497;SDS011;20744;50.938;7.286;2022-09-17T00:44:42;15.18;;;4.88;;
34497;SDS011;20744;50.938;7.286;2022-09-17T00:47:11;18.75;;;4.65;;
34497;SDS011;20744;50.938;7.286;2022-09-17T00:49:39;15.38;;;5.00;;
34497;SDS011;20744;50.938;7.286;2022-09-17T00:52:09;18.80;;;5.18;;
34497;SDS011;20744;50.938;7.286;2022-09-17T00:54:39;19.15;;;4.55;;
34497;SDS011;20744;50.938;7.286;2022-09-17T00:57:07;15.23;;;4.18;;
34497;SDS011;20744;50.938;7.286;2022-09-17T00:59:34;14.65;;;4.50;;
34497;SDS011;20744;50.938;7.286;2022-09-17T01:02:02;17.42;;;4.45;;
34497;SDS011;20744;50.938;7.286;2022-09-17T01:04:29;19.23;;;4.68;;
34497;SDS011;20744;50.938;7.286;2022-09-17T01:06:59;19.33;;;4.60;;
34497;SDS011;20744;50.938;7.286;2022-09-17T01:09:33;9.95;;;4.38;;
34497;SDS011;20744;50.938;7.286;2022-09-17T01:12:07;10.52;;;4.63;;
34497;SDS011;20744;50.938;7.286;2022-09-17T01:14:43;19.02;;;4.60;;
34497;SDS011;20744;50.938;7.286;2022-09-17T01:17:14;16.65;;;4.95;;
34497;SDS011;20744;50.938;7.286;2022-09-17T01:19:50;14.50;;;4.50;;
34497;SDS011;20744;50.938;7.286;2022-09-17T01:22:22;15.30;;;4.40;;
34497;SDS011;20744;50.938;7.286;2022-09-17T01:24:58;15.00;;;4.70;;
34497;SDS011;20744;50.938;7.286;2022-09-17T01:30:17;18.80;;;5.35;;
34497;SDS011;20744;50.938;7.286;2022-09-17T01:32:48;18.17;;;5.13;;
34497;SDS011;20744;50.938;7.286;2022-09-17T01:35:19;11.75;;;4.57;;
34497;SDS011;20744;50.938;7.286;2022-09-17T01:37:49;14.10;;;4.50;;
34497;SDS011;20744;50.938;7.286;2022-09-17T01:40:20;14.45;;;5.22;;
34497;SDS011;20744;50.938;7.286;2022-09-17T01:42:51;15.68;;;5.38;;
34497;SDS011;20744;50.938;7.286;2022-09-17T01:45:21;14.38;;;5.03;;
34497;SDS011;20744;50.938;7.286;2022-09-17T01:47:53;16.60;;;5.43;;
34497;SDS011;20744;50.938;7.286;2022-09-17T01:50:22;25.60;;;5.88;;
34497;SDS011;20744;50.938;7.286;2022-09-17T01:52:51;12.90;;;5.47;;
34497;SDS011;20744;50.938;7.286;2022-09-17T01:55:19;17.38;;;6.18;;
34497;SDS011;20744;50.938;7.286;2022-09-17T01:57:48;17.60;;;6.20;;
34497;SDS011;20744;50.938;7.286;2022-09-17T02:00:17;14.68;;;6.63;;
34497;SDS011;20744;50.938;7.286;2022-09-17T02:02:45;11.85;;;5.72;;
34497;SDS011;20744;50.938;7.286;2022-09-17T02:05:17;14.32;;;6.38;;
34497;SDS011;20744;50.938;7.286;2022-09-17T02:07:46;15.07;;;6.13;;
34497;SDS011;20744;50.938;7.286;2022-09-17T02:10:16;11.45;;;5.97;;
34497;SDS011;20744;50.938;7.286;2022-09-17T02:12:45;11.57;;;6.38;;
34497;SDS011;20744;50.938;7.286;2022-09-17T02:15:14;16.08;;;6.30;;
34497;SDS011;20744;50.938;7.286;2022-09-17T02:17:45;13.32;;;5.82;;
34497;SDS011;20744;50.938;7.286;2022-09-17T02:20:16;16.38;;;6.40;;
34497;SDS011;20744;50.938;7.286;2022-09-17T02:22:46;14.77;;;7.03;;
34497;SDS011;20744;50.938;7.286;2022-09-17T02:25:16;12.13;;;7.43;;
34497;SDS011;20744;50.938;7.286;2022-09-17T02:27:47;15.38;;;8.52;;
34497;SDS011;20744;50.938;7.286;2022-09-17T02:30:17;15.93;;;7.90;;
34497;SDS011;20744;50.938;7.286;2022-09-17T02:32:44;18.25;;;9.88;;
34497;SDS011;20744;50.938;7.286;2022-09-17T02:35:11;20.65;;;10.05;;
34497;SDS011;20744;50.938;7.286;2022-09-17T02:37:41;22.00;;;10.48;;
34497;SDS011;20744;50.938;7.286;2022-09-17T02:40:08;19.67;;;10.07;;
34497;SDS011;20744;50.938;7.286;2022-09-17T02:42:40;23.33;;;11.00;;
34497;SDS011;20744;50.938;7.286;2022-09-17T02:45:13;24.40;;;11.80;;
34497;SDS011;20744;50.938;7.286;2022-09-17T02:47:50;30.58;;;11.93;;
34497;SDS011;20744;50.938;7.286;2022-09-17T02:50:23;23.80;;;12.18;;
34497;SDS011;20744;50.938;7.286;2022-09-17T02:52:57;28.50;;;11.70;;
34497;SDS011;20744;50.938;7.286;2022-09-17T02:55:28;29.85;;;11.85;;
34497;SDS011;20744;50.938;7.286;2022-09-17T02:57:59;23.98;;;11.93;;
34497;SDS011;20744;50.938;7.286;2022-09-17T03:00:30;24.90;;;11.70;;
34497;SDS011;20744;50.938;7.286;2022-09-17T03:02:58;26.80;;;11.02;;
34497;SDS011;20744;50.938;7.286;2022-09-17T03:05:28;28.77;;;11.65;;
34497;SDS011;20744;50.938;7.286;2022-09-17T03:07:57;28.70;;;10.38;;
34497;SDS011;20744;50.938;7.286;2022-09-17T03:10:25;24.50;;;10.90;;
34497;SDS011;20744;50.938;7.286;2022-09-17T03:12:54;23.95;;;10.68;;
34497;SDS011;20744;50.938;7.286;2022-09-17T03:15:22;24.98;;;10.68;;
34497;SDS011;20744;50.938;7.286;2022-09-17T03:17:49;30.80;;;11.57;;
34497;SDS011;20744;50.938;7.286;2022-09-17T03:20:16;22.85;;;11.48;;
34497;SDS011;20744;50.938;7.286;2022-09-17T03:22:43;26.17;;;10.40;;
34497;SDS011;20744;50.938;7.286;2022-09-17T03:25:12;22.10;;;9.68;;
34497;SDS011;20744;50.938;7.286;2022-09-17T03:27:39;29.25;;;10.30;;
34497;SDS011;20744;50.938;7.286;2022-09-17T03:30:07;22.48;;;9.63;;
34497;SDS011;20744;50.938;7.286;2022-09-17T03:32:34;21.85;;;10.73;;
34497;SDS011;20744;50.938;7.286;2022-09-17T03:35:01;32.65;;;11.75;;
34497;SDS011;20744;50.938;7.286;2022-09-17T03:37:29;24.27;;;11.25;;
34497;SDS011;20744;50.938;7.286;2022-09-17T03:39:56;27.20;;;10.90;;
34497;SDS011;20744;50.938;7.286;2022-09-17T03:42:24;26.45;;;10.90;;
34497;SDS011;20744;50.938;7.286;2022-09-17T03:44:52;30.05;;;10.20;;
34497;SDS011;20744;50.938;7.286;2022-09-17T03:47:19;29.48;;;9.77;;
34497;SDS011;20744;50.938;7.286;2022-09-17T03:49:46;30.83;;;10.05;;
34497;SDS011;20744;50.938;7.286;2022-09-17T03:52:14;33.05;;;10.32;;
34497;SDS011;20744;50.938;7.286;2022-09-17T03:54:41;33.05;;;9.82;;
34497;SDS011;20744;50.938;7.286;2022-09-17T03:57:08;29.10;;;9.85;;
34497;SDS011;20744;50.938;7.286;2022-09-17T03:59:37;26.77;;;10.07;;
34497;SDS011;20744;50.938;7.286;2022-09-17T04:02:04;29.35;;;10.52;;
34497;SDS011;20744;50.938;7.286;2022-09-17T04:04:31;22.17;;;9.00;;
34497;SDS011;20744;50.938;7.286;2022-09-17T04:06:58;36.90;;;10.43;;
34497;SDS011;20744;50.938;7.286;2022-09-17T04:09:25;23.73;;;9.73;;
34497;SDS011;20744;50.938;7.286;2022-09-17T04:11:52;21.90;;;9.23;;
34497;SDS011;20744;50.938;7.286;2022-09-17T04:14:20;22.20;;;8.27;;
34497;SDS011;20744;50.938;7.286;2022-09-17T04:16:48;27.58;;;8.10;;
34497;SDS011;20744;50.938;7.286;2022-09-17T04:19:15;29.90;;;8.98;;
34497;SDS011;20744;50.938;7.286;2022-09-17T04:21:43;22.90;;;6.82;;
34497;SDS011;20744;50.938;7.286;2022-09-17T04:24:10;21.70;;;7.05;;
34497;SDS011;20744;50.938;7.286;2022-09-17T04:26:37;19.25;;;6.18;;
34497;SDS011;20744;50.938;7.286;2022-09-17T04:29:05;26.35;;;7.22;;
34497;SDS011;20744;50.938;7.286;2022-09-17T04:31:32;19.45;;;6.65;;
34497;SDS011;20744;50.938;7.286;2022-09-17T04:34:01;22.85;;;6.38;;
34497;SDS011;20744;50.938;7.286;2022-09-17T04:36:28;24.05;;;5.95;;
34497;SDS011;20744;50.938;7.286;2022-09-17T04:38:55;24.08;;;6.13;;
34497;SDS011;20744;50.938;7.286;2022-09-17T04:41:22;20.02;;;5.72;;
34497;SDS011;20744;50.938;7.286;2022-09-17T04:43:49;23.73;;;6.50;;
34497;SDS011;20744;50.938;7.286;2022-09-17T04:46:17;25.05;;;5.95;;
34497;SDS011;20744;50.938;7.286;2022-09-17T04:48:44;24.77;;;5.22;;
34497;SDS011;20744;50.938;7.286;2022-09-17T04:51:12;22.98;;;4.97;;
34497;SDS011;20744;50.938;7.286;2022-09-17T04:53:40;25.67;;;5.35;;
34497;SDS011;20744;50.938;7.286;2022-09-17T04:56:07;16.20;;;4.85;;
34497;SDS011;20744;50.938;7.286;2022-09-17T04:58:34;17.85;;;4.82;;
34497;SDS011;20744;50.938;7.286;2022-09-17T05:01:01;29.83;;;4.82;;
34497;SDS011;20744;50.938;7.286;2022-09-17T05:03:28;18.35;;;4.15;;
34497;SDS011;20744;50.938;7.286;2022-09-17T05:05:56;17.20;;;4.00;;
34497;SDS011;20744;50.938;7.286;2022-09-17T05:08:24;27.85;;;4.43;;
34497;SDS011;20744;50.938;7.286;2022-09-17T05:10:51;29.85;;;4.20;;
34497;SDS011;20744;50.938;7.286;2022-09-17T05:13:19;14.73;;;3.03;;
34497;SDS011;20744;50.938;7.286;2022-09-17T05:15:46;18.48;;;3.70;;
34497;SDS011;20744;50.938;7.286;2022-09-17T05:18:13;22.52;;;3.60;;
34497;SDS011;20744;50.938;7.286;2022-09-17T05:20:41;22.25;;;3.83;;
34497;SDS011;20744;50.938;7.286;2022-09-17T05:23:08;17.52;;;3.58;;
34497;SDS011;20744;50.938;7.286;2022-09-17T05:25:37;22.10;;;4.13;;
34497;SDS011;20744;50.938;7.286;2022-09-17T05:28:04;16.95;;;3.92;;
34497;SDS011;20744;50.938;7.286;2022-09-17T05:30:31;18.05;;;3.67;;
34497;SDS011;20744;50.938;7.286;2022-09-17T05:32:59;29.00;;;4.25;;
34497;SDS011;20744;50.938;7.286;2022-09-17T05:35:27;24.70;;;4.93;;
34497;SDS011;20744;50.938;7.286;2022-09-17T05:37:58;19.45;;;3.78;;
34497;SDS011;20744;50.938;7.286;2022-09-17T05:40:25;19.75;;;3.53;;
34497;SDS011;20744;50.938;7.286;2022-09-17T05:42:57;19.55;;;3.80;;
34497;SDS011;20744;50.938;7.286;2022-09-17T05:45:25;21.13;;;3.72;;
34497;SDS011;20744;50.938;7.286;2022-09-17T05:47:55;15.52;;;3.90;;
34497;SDS011;20744;50.938;7.286;2022-09-17T05:50:22;23.30;;;3.70;;
34497;SDS011;20744;50.938;7.286;2022-09-17T05:52:49;18.20;;;3.83;;
34497;SDS011;20744;50.938;7.286;2022-09-17T05:55:17;23.55;;;4.47;;
34497;SDS011;20744;50.938;7.286;2022-09-17T05:57:46;22.80;;;3.88;;
34497;SDS011;20744;50.938;7.286;2022-09-17T06:00:15;23.92;;;3.97;;
34497;SDS011;20744;50.938;7.286;2022-09-17T06:02:42;20.58;;;4.30;;
34497;SDS011;20744;50.938;7.286;2022-09-17T06:05:10;26.83;;;4.78;;
34497;SDS011;20744;50.938;7.286;2022-09-17T06:07:37;21.10;;;4.22;;
34497;SDS011;20744;50.938;7.286;2022-09-17T06:10:05;18.95;;;4.50;;
34497;SDS011;20744;50.938;7.286;2022-09-17T06:12:33;27.63;;;4.20;;
34497;SDS011;20744;50.938;7.286;2022-09-17T06:15:00;27.67;;;4.57;;
34497;SDS011;20744;50.938;7.286;2022-09-17T06:17:29;23.83;;;4.10;;
34497;SDS011;20744;50.938;7.286;2022-09-17T06:19:58;26.60;;;4.45;;
34497;SDS011;20744;50.938;7.286;2022-09-17T06:22:25;15.07;;;3.95;;
34497;SDS011;20744;50.938;7.286;2022-09-17T06:24:52;15.82;;;3.15;;
34497;SDS011;20744;50.938;7.286;2022-09-17T06:27:20;18.95;;;3.67;;
34497;SDS011;20744;50.938;7.286;2022-09-17T06:29:47;18.20;;;3.53;;
34497;SDS011;20744;50.938;7.286;2022-09-17T06:32:14;20.50;;;3.58;;
34497;SDS011;20744;50.938;7.286;2022-09-17T06:34:43;18.13;;;3.58;;
34497;SDS011;20744;50.938;7.286;2022-09-17T06:37:10;21.42;;;4.03;;
34497;SDS011;20744;50.938;7.286;2022-09-17T06:39:37;21.00;;;3.58;;
34497;SDS011;20744;50.938;7.286;2022-09-17T06:42:05;23.25;;;3.30;;
34497;SDS011;20744;50.938;7.286;2022-09-17T06:44:32;15.88;;;2.90;;
34497;SDS011;20744;50.938;7.286;2022-09-17T06:47:00;16.65;;;3.17;;
34497;SDS011;20744;50.938;7.286;2022-09-17T06:49:27;19.40;;;3.00;;
34497;SDS011;20744;50.938;7.286;2022-09-17T06:51:56;13.15;;;2.63;;
34497;SDS011;20744;50.938;7.286;2022-09-17T06:54:24;14.95;;;2.80;;
34497;SDS011;20744;50.938;7.286;2022-09-17T06:56:51;16.88;;;2.45;;
34497;SDS011;20744;50.938;7.286;2022-09-17T06:59:18;16.35;;;2.92;;
34497;SDS011;20744;50.938;7.286;2022-09-17T07:01:46;16.55;;;3.05;;
34497;SDS011;20744;50.938;7.286;2022-09-17T07:04:13;16.20;;;3.10;;
34497;SDS011;20744;50.938;7.286;2022-09-17T07:06:41;16.30;;;3.08;;
34497;SDS011;20744;50.938;7.286;2022-09-17T07:09:10;17.00;;;2.72;;
34497;SDS011;20744;50.938;7.286;2022-09-17T07:11:37;20.80;;;3.33;;
34497;SDS011;20744;50.938;7.286;2022-09-17T07:14:05;15.68;;;3.15;;
34497;SDS011;20744;50.938;7.286;2022-09-17T07:16:32;13.65;;;3.40;;
34497;SDS011;20744;50.938;7.286;2022-09-17T07:19:00;11.27;;;2.80;;
34497;SDS011;20744;50.938;7.286;2022-09-17T07:21:27;12.85;;;3.08;;
34497;SDS011;20744;50.938;7.286;2022-09-17T07:23:55;20.08;;;3.10;;
34497;SDS011;20744;50.938;7.286;2022-09-17T07:26:24;16.00;;;3.00;;
34497;SDS011;20744;50.938;7.286;2022-09-17T07:28:51;17.85;;;2.78;;
34497;SDS011;20744;50.938;7.286;2022-09-17T07:31:18;14.75;;;3.00;;
34497;SDS011;20744;50.938;7.286;2022-09-17T07:33:45;19.17;;;2.63;;
34497;SDS011;20744;50.938;7.286;2022-09-17T07:36:13;14.70;;;2.72;;
34497;SDS011;20744;50.938;7.286;2022-09-17T07:38:41;22.70;;;3.47;;
34497;SDS011;20744;50.938;7.286;2022-09-17T07:41:09;15.52;;;2.80;;
34497;SDS011;20744;50.938;7.286;2022-09-17T07:43:39;17.88;;;3.17;;
34497;SDS011;20744;50.938;7.286;2022-09-17T07:46:07;19.70;;;2.65;;
34497;SDS011;20744;50.938;7.286;2022-09-17T07:48:34;15.75;;;2.30;;
34497;SDS011;20744;50.938;7.286;2022-09-17T07:51:01;15.00;;;2.50;;
34497;SDS011;20744;50.938;7.286;2022-09-17T07:53:28;19.45;;;2.50;;
34497;SDS011;20744;50.938;7.286;2022-09-17T07:55:57;12.70;;;2.47;;
34497;SDS011;20744;50.938;7.286;2022-09-17T07:58:27;16.30;;;2.90;;
34497;SDS011;20744;50.938;7.286;2022-09-17T08:00:59;16.33;;;2.67;;
34497;SDS011;20744;50.938;7.286;2022-09-17T08:03:27;16.13;;;2.90;;
34497;SDS011;20744;50.938;7.286;2022-09-17T08:05:59;15.45;;;2.85;;
34497;SDS011;20744;50.938;7.286;2022-09-17T08:08:27;15.93;;;3.40;;
34497;SDS011;20744;50.938;7.286;2022-09-17T08:10:58;13.52;;;2.40;;
34497;SDS011;20744;50.938;7.286;2022-09-17T08:13:25;18.55;;;2.38;;
34497;SDS011;20744;50.938;7.286;2022-09-17T08:15:52;11.98;;;2.50;;
34497;SDS011;20744;50.938;7.286;2022-09-17T08:18:24;14.48;;;2.55;;
34497;SDS011;20744;50.938;7.286;2022-09-17T08:20:55;14.13;;;2.47;;
34497;SDS011;20744;50.938;7.286;2022-09-17T08:23:22;13.00;;;2.17;;
34497;SDS011;20744;50.938;7.286;2022-09-17T08:25:52;16.73;;;2.40;;
34497;SDS011;20744;50.938;7.286;2022-09-17T08:28:20;16.05;;;2.35;;
34497;SDS011;20744;50.938;7.286;2022-09-17T08:30:48;15.70;;;2.08;;
34497;SDS011;20744;50.938;7.286;2022-09-17T08:33:15;13.38;;;2.45;;
34497;SDS011;20744;50.938;7.286;2022-09-17T08:35:49;11.23;;;1.80;;
34497;SDS011;20744;50.938;7.286;2022-09-17T08:38:16;13.85;;;2.15;;
34497;SDS011;20744;50.938;7.286;2022-09-17T08:40:52;11.38;;;1.60;;
34497;SDS011;20744;50.938;7.286;2022-09-17T08:43:21;13.40;;;2.15;;
34497;SDS011;20744;50.938;7.286;2022-09-17T08:45:50;8.75;;;1.98;;
34497;SDS011;20744;50.938;7.286;2022-09-17T08:48:18;10.98;;;1.67;;
34497;SDS011;20744;50.938;7.286;2022-09-17T08:50:47;12.40;;;2.50;;
34497;SDS011;20744;50.938;7.286;2022-09-17T08:53:22;17.25;;;2.30;;
34497;SDS011;20744;50.938;7.286;2022-09-17T08:55:53;9.77;;;2.38;;
34497;SDS011;20744;50.938;7.286;2022-09-17T08:58:32;15.80;;;2.10;;
34497;SDS011;20744;50.938;7.286;2022-09-17T09:01:06;7.90;;;1.65;;
34497;SDS011;20744;50.938;7.286;2022-09-17T09:03:39;13.13;;;1.70;;
34497;SDS011;20744;50.938;7.286;2022-09-17T09:06:12;12.70;;;2.30;;
34497;SDS011;20744;50.938;7.286;2022-09-17T09:08:40;11.95;;;1.70;;
34497;SDS011;20744;50.938;7.286;2022-09-17T09:11:10;11.43;;;1.75;;
34497;SDS011;20744;50.938;7.286;2022-09-17T09:13:40;11.73;;;1.80;;
34497;SDS011;20744;50.938;7.286;2022-09-17T09:16:10;8.52;;;1.67;;
34497;SDS011;20744;50.938;7.286;2022-09-17T09:18:39;12.13;;;2.22;;
34497;SDS011;20744;50.938;7.286;2022-09-17T09:21:13;11.88;;;2.15;;
34497;SDS011;20744;50.938;7.286;2022-09-17T09:23:46;11.88;;;2.05;;
34497;SDS011;20744;50.938;7.286;2022-09-17T09:26:16;9.23;;;1.67;;
34497;SDS011;20744;50.938;7.286;2022-09-17T09:28:47;13.00;;;1.75;;
34497;SDS011;20744;50.938;7.286;2022-09-17T09:31:26;14.73;;;1.75;;
34497;SDS011;20744;50.938;7.286;2022-09-17T09:33:59;8.10;;;1.42;;
34497;SDS011;20744;50.938;7.286;2022-09-17T09:36:29;12.73;;;1.52;;
34497;SDS011;20744;50.938;7.286;2022-09-17T09:38:59;9.18;;;2.05;;
34497;SDS011;20744;50.938;7.286;2022-09-17T09:41:28;6.93;;;1.30;;
34497;SDS011;20744;50.938;7.286;2022-09-17T09:43:59;5.72;;;1.52;;
34497;SDS011;20744;50.938;7.286;2022-09-17T09:46:34;9.60;;;1.60;;
34497;SDS011;20744;50.938;7.286;2022-09-17T09:49:07;6.97;;;1.13;;
34497;SDS011;20744;50.938;7.286;2022-09-17T09:51:49;8.45;;;1.60;;
34497;SDS011;20744;50.938;7.286;2022-09-17T09:54:24;6.60;;;1.50;;
34497;SDS011;20744;50.938;7.286;2022-09-17T09:56:55;10.15;;;1.30;;
34497;SDS011;20744;50.938;7.286;2022-09-17T09:59:23;7.25;;;1.27;;
34497;SDS011;20744;50.938;7.286;2022-09-17T10:01:50;7.88;;;1.30;;
34497;SDS011;20744;50.938;7.286;2022-09-17T10:04:18;12.77;;;1.60;;
34497;SDS011;20744;50.938;7.286;2022-09-17T10:06:48;11.88;;;1.40;;
34497;SDS011;20744;50.938;7.286;2022-09-17T10:09:16;10.85;;;1.48;;
34497;SDS011;20744;50.938;7.286;2022-09-17T10:11:58;8.18;;;1.45;;
34497;SDS011;20744;50.938;7.286;2022-09-17T10:14:26;6.78;;;1.48;;
34497;SDS011;20744;50.938;7.286;2022-09-17T10:19:38;8.70;;;1.47;;
34497;SDS011;20744;50.938;7.286;2022-09-17T10:22:17;8.57;;;1.38;;
34497;SDS011;20744;50.938;7.286;2022-09-17T10:24:45;6.78;;;1.15;;
34497;SDS011;20744;50.938;7.286;2022-09-17T10:27:13;12.43;;;1.50;;
34497;SDS011;20744;50.938;7.286;2022-09-17T10:29:41;10.80;;;1.38;;
34497;SDS011;20744;50.938;7.286;2022-09-17T10:32:13;10.35;;;1.40;;
34497;SDS011;20744;50.938;7.286;2022-09-17T10:34:41;7.53;;;1.20;;
34497;SDS011;20744;50.938;7.286;2022-09-17T10:37:17;8.18;;;1.30;;
34497;SDS011;20744;50.938;7.286;2022-09-17T10:39:57;7.43;;;1.65;;
34497;SDS011;20744;50.938;7.286;2022-09-17T10:42:24;7.93;;;1.42;;
34497;SDS011;20744;50.938;7.286;2022-09-17T10:44:52;7.50;;;1.45;;
34497;SDS011;20744;50.938;7.286;2022-09-17T10:47:20;6.55;;;1.27;;
34497;SDS011;20744;50.938;7.286;2022-09-17T10:49:48;7.20;;;1.30;;
34497;SDS011;20744;50.938;7.286;2022-09-17T10:52:22;7.50;;;1.30;;
34497;SDS011;20744;50.938;7.286;2022-09-17T10:57:49;7.05;;;1.20;;
34497;SDS011;20744;50.938;7.286;2022-09-17T11:00:19;9.60;;;1.20;;
34497;SDS011;20744;50.938;7.286;2022-09-17T11:05:36;8.40;;;1.00;;
34497;SDS011;20744;50.938;7.286;2022-09-17T11:08:06;5.45;;;1.00;;
34497;SDS011;20744;50.938;7.286;2022-09-17T11:10:35;9.32;;;1.63;;
34497;SDS011;20744;50.938;7.286;2022-09-17T11:13:09;6.22;;;1.02;;
34497;SDS011;20744;50.938;7.286;2022-09-17T11:15:44;6.40;;;1.20;;
34497;SDS011;20744;50.938;7.286;2022-09-17T11:18:18;4.38;;;0.90;;
34497;SDS011;20744;50.938;7.286;2022-09-17T11:20:54;10.32;;;1.42;;
34497;SDS011;20744;50.938;7.286;2022-09-17T11:23:40;6.55;;;1.25;;
34497;SDS011;20744;50.938;7.286;2022-09-17T11:26:15;7.60;;;1.58;;
34497;SDS011;20744;50.938;7.286;2022-09-17T11:28:49;10.40;;;1.33;;
34497;SDS011;20744;50.938;7.286;2022-09-17T11:31:22;8.02;;;1.30;;
34497;SDS011;20744;50.938;7.286;2022-09-17T11:34:03;7.25;;;1.10;;
34497;SDS011;20744;50.938;7.286;2022-09-17T11:36:37;8.93;;;1.15;;
34497;SDS011;20744;50.938;7.286;2022-09-17T11:39:12;8.73;;;1.58;;
34497;SDS011;20744;50.938;7.286;2022-09-17T11:41:42;5.43;;;0.93;;
34497;SDS011;20744;50.938;7.286;2022-09-17T11:44:12;8.27;;;1.08;;
34497;SDS011;20744;50.938;7.286;2022-09-17T11:46:41;7.85;;;1.42;;
34497;SDS011;20744;50.938;7.286;2022-09-17T11:49:12;5.03;;;0.90;;
34497;SDS011;20744;50.938;7.286;2022-09-17T11:51:42;6.75;;;1.08;;
34497;SDS011;20744;50.938;7.286;2022-09-17T11:54:17;5.10;;;1.00;;
34497;SDS011;20744;50.938;7.286;2022-09-17T11:56:46;5.45;;;1.02;;
34497;SDS011;20744;50.938;7.286;2022-09-17T11:59:17;5.90;;;0.90;;
34497;SDS011;20744;50.938;7.286;2022-09-17T12:01:47;4.93;;;0.88;;
34497;SDS011;20744;50.938;7.286;2022-09-17T12:04:21;5.13;;;1.10;;
34497;SDS011;20744;50.938;7.286;2022-09-17T12:09:19;8.05;;;0.85;;
34497;SDS011;20744;50.938;7.286;2022-09-17T12:11:49;8.73;;;1.25;;
34497;SDS011;20744;50.938;7.286;2022-09-17T12:14:19;3.88;;;0.50;;
34497;SDS011;20744;50.938;7.286;2022-09-17T12:16:48;10.68;;;1.20;;
34497;SDS011;20744;50.938;7.286;2022-09-17T12:19:18;8.27;;;1.00;;
34497;SDS011;20744;50.938;7.286;2022-09-17T12:21:48;6.75;;;1.05;;
34497;SDS011;20744;50.938;7.286;2022-09-17T12:24:17;5.00;;;0.80;;
34497;SDS011;20744;50.938;7.286;2022-09-17T12:26:52;4.55;;;0.98;;
34497;SDS011;20744;50.938;7.286;2022-09-17T12:29:28;5.63;;;0.90;;
34497;SDS011;20744;50.938;7.286;2022-09-17T12:31:57;6.45;;;0.90;;
34497;SDS011;20744;50.938;7.286;2022-09-17T12:34:32;8.48;;;0.80;;
34497;SDS011;20744;50.938;7.286;2022-09-17T12:37:03;4.22;;;0.70;;
34497;SDS011;20744;50.938;7.286;2022-09-17T12:42:20;2.60;;;0.50;;
34497;SDS011;20744;50.938;7.286;2022-09-17T12:50:17;3.88;;;0.70;;
34497;SDS011;20744;50.938;7.286;2022-09-17T12:52:49;2.15;;;0.40;;
34497;SDS011;20744;50.938;7.286;2022-09-17T12:58:09;4.32;;;0.60;;
34497;SDS011;20744;50.938;7.286;2022-09-17T13:00:41;2.78;;;0.63;;
34497;SDS011;20744;50.938;7.286;2022-09-17T13:03:12;4.18;;;1.05;;
34497;SDS011;20744;50.938;7.286;2022-09-17T13:05:50;3.35;;;0.63;;
34497;SDS011;20744;50.938;7.286;2022-09-17T13:08:25;3.70;;;0.88;;
34497;SDS011;20744;50.938;7.286;2022-09-17T13:11:01;1.70;;;0.60;;
34497;SDS011;20744;50.938;7.286;2022-09-17T13:13:36;2.47;;;0.55;;
34497;SDS011;20744;50.938;7.286;2022-09-17T13:16:10;2.35;;;0.50;;
34497;SDS011;20744;50.938;7.286;2022-09-17T13:18:41;3.08;;;0.50;;
34497;SDS011;20744;50.938;7.286;2022-09-17T13:21:11;2.53;;;0.50;;
34497;SDS011;20744;50.938;7.286;2022-09-17T13:23:41;5.60;;;0.82;;
34497;SDS011;20744;50.938;7.286;2022-09-17T13:26:09;3.33;;;0.88;;
34497;SDS011;20744;50.938;7.286;2022-09-17T13:28:41;5.32;;;0.70;;
34497;SDS011;20744;50.938;7.286;2022-09-17T13:31:08;2.75;;;0.63;;
34497;SDS011;20744;50.938;7.286;2022-09-17T13:33:49;7.78;;;0.70;;
34497;SDS011;20744;50.938;7.286;2022-09-17T13:41:58;1.45;;;0.30;;
34497;SDS011;20744;50.938;7.286;2022-09-17T13:44:27;1.30;;;0.43;;
34497;SDS011;20744;50.938;7.286;2022-09-17T13:46:55;1.92;;;0.80;;
34497;SDS011;20744;50.938;7.286;2022-09-17T13:49:34;3.60;;;0.77;;
34497;SDS011;20744;50.938;7.286;2022-09-17T13:52:01;1.40;;;0.50;;
34497;SDS011;20744;50.938;7.286;2022-09-17T13:54:37;3.55;;;0.90;;
34497;SDS011;20744;50.938;7.286;2022-09-17T13:57:08;2.15;;;0.75;;
34497;SDS011;20744;50.938;7.286;2022-09-17T13:59:38;1.83;;;0.50;;
34497;SDS011;20744;50.938;7.286;2022-09-17T14:07:49;4.28;;;0.65;;
34497;SDS011;20744;50.938;7.286;2022-09-17T14:10:33;3.13;;;0.50;;
34497;SDS011;20744;50.938;7.286;2022-09-17T14:16:01;4.63;;;0.70;;
34497;SDS011;20744;50.938;7.286;2022-09-17T14:18:36;2.15;;;0.50;;
34497;SDS011;20744;50.938;7.286;2022-09-17T14:21:04;3.80;;;0.90;;
34497;SDS011;20744;50.938;7.286;2022-09-17T14:23:32;2.60;;;0.70;;
34497;SDS011;20744;50.938;7.286;2022-09-17T14:25:59;4.90;;;0.65;;
34497;SDS011;20744;50.938;7.286;2022-09-17T14:28:29;2.67;;;0.70;;
34497;SDS011;20744;50.938;7.286;2022-09-17T14:30:57;3.03;;;0.68;;
34497;SDS011;20744;50.938;7.286;2022-09-17T14:33:27;2.83;;;0.60;;
34497;SDS011;20744;50.938;7.286;2022-09-17T14:35:57;3.67;;;0.60;;
34497;SDS011;20744;50.938;7.286;2022-09-17T14:38:26;2.53;;;1.00;;
34497;SDS011;20744;50.938;7.286;2022-09-17T14:40:58;3.67;;;0.50;;
34497;SDS011;20744;50.938;7.286;2022-09-17T14:43:30;6.32;;;0.82;;
34497;SDS011;20744;50.938;7.286;2022-09-17T14:46:00;1.95;;;0.63;;
34497;SDS011;20744;50.938;7.286;2022-09-17T14:48:31;5.95;;;0.80;;
34497;SDS011;20744;50.938;7.286;2022-09-17T14:54:06;7.18;;;1.50;;
34497;SDS011;20744;50.938;7.286;2022-09-17T14:56:38;5.93;;;1.15;;
34497;SDS011;20744;50.938;7.286;2022-09-17T14:59:08;5.60;;;1.00;;
34497;SDS011;20744;50.938;7.286;2022-09-17T15:01:52;2.80;;;0.80;;
34497;SDS011;20744;50.938;7.286;2022-09-17T15:04:21;5.65;;;0.80;;
34497;SDS011;20744;50.938;7.286;2022-09-17T15:06:49;3.17;;;0.80;;
34497;SDS011;20744;50.938;7.286;2022-09-17T15:09:21;3.42;;;0.80;;
34497;SDS011;20744;50.938;7.286;2022-09-17T15:11:49;1.83;;;0.73;;
34497;SDS011;20744;50.938;7.286;2022-09-17T15:14:18;2.35;;;0.70;;
34497;SDS011;20744;50.938;7.286;2022-09-17T15:16:47;3.85;;;0.85;;
34497;SDS011;20744;50.938;7.286;2022-09-17T15:19:17;5.38;;;0.65;;
34497;SDS011;20744;50.938;7.286;2022-09-17T15:21:48;4.22;;;0.98;;
34497;SDS011;20744;50.938;7.286;2022-09-17T15:24:17;4.88;;;0.77;;
34497;SDS011;20744;50.938;7.286;2022-09-17T15:26:48;3.28;;;0.77;;
34497;SDS011;20744;50.938;7.286;2022-09-17T15:29:15;5.00;;;1.00;;
34497;SDS011;20744;50.938;7.286;2022-09-17T15:31:45;3.40;;;0.90;;
34497;SDS011;20744;50.938;7.286;2022-09-17T15:34:12;5.43;;;0.80;;